Time;durP1;ratioP1;P1;durP2;ratioP2;P2;SDS_P1;SDS_P2;PMS_P1;PMS_P2;Temp;Humidity;BMP_temperature;BMP_pressure;BME280_temperature;BME280_humidity;BME280_pressure;Samples;Min_cycle;Max_cycle;Signal;HPM_P1;HPM_P2
2022/07/01 00:00:29;;;;;;;11.75;7.10;;;;;20.80;96044.00;;;;8326159;28;20200;-81
2022/07/01 00:04:34;;;;;;;11.75;7.07;;;;;20.80;96049.00;;;;8322147;28;20571;-75
2022/07/01 00:08:37;;;;;;;14.15;6.85;;;;;20.90;96053.00;;;;8324090;28;20213;-79
2022/07/01 00:12:40;;;;;;;13.60;7.05;;;;;21.10;96056.00;;;;8326174;28;20205;-75
2022/07/01 00:16:44;;;;;;;16.77;6.72;;;;;21.30;96062.00;;;;8325306;28;20793;-81
2022/07/01 00:20:48;;;;;;;10.32;6.13;;;;;21.50;96066.00;;;;8318513;28;20193;-78
2022/07/01 00:24:52;;;;;;;8.40;5.25;;;;;21.60;96079.00;;;;8316306;28;20218;-79
2022/07/01 00:28:56;;;;;;;7.80;5.20;;;;;21.70;96082.00;;;;8320317;28;20236;-75
2022/07/01 00:33:01;;;;;;;7.05;4.40;;;;;22.00;96090.00;;;;8324971;28;20197;-79
2022/07/01 00:37:05;;;;;;;7.45;3.90;;;;;22.10;96099.00;;;;8325549;28;20189;-79
2022/07/01 00:41:09;;;;;;;9.45;4.30;;;;;22.30;96114.00;;;;8324630;28;20197;-78
2022/07/01 00:45:12;;;;;;;8.90;3.90;;;;;22.40;96117.00;;;;8321952;28;20225;-77
2022/07/01 00:49:16;;;;;;;10.15;3.83;;;;;22.40;96115.00;;;;8325022;28;20194;-74
2022/07/01 00:53:21;;;;;;;7.35;4.25;;;;;22.40;96118.00;;;;8324828;28;20198;-74
2022/07/01 00:57:30;;;;;;;3.75;3.33;;;;;22.40;96114.00;;;;8320514;28;20202;-78
2022/07/01 01:01:34;;;;;;;5.20;3.28;;;;;22.30;96120.00;;;;8308881;28;20194;-80
2022/07/01 01:05:37;;;;;;;7.32;3.17;;;;;22.30;96127.00;;;;8322791;28;20316;-81
2022/07/01 01:09:42;;;;;;;6.75;3.10;;;;;22.20;96129.00;;;;8323215;28;20727;-76
2022/07/01 01:13:45;;;;;;;4.97;3.10;;;;;22.00;96132.00;;;;8323613;28;20236;-81
2022/07/01 01:17:48;;;;;;;7.95;3.30;;;;;21.90;96127.00;;;;8321878;28;20280;-73
2022/07/01 01:21:54;;;;;;;6.80;3.03;;;;;21.90;96105.00;;;;8324371;28;20722;-75
2022/07/01 01:25:57;;;;;;;4.25;3.30;;;;;21.80;96098.00;;;;8319774;28;20260;-69
2022/07/01 01:30:00;;;;;;;5.07;3.40;;;;;21.70;96112.00;;;;8323847;28;21032;-77
2022/07/01 01:34:04;;;;;;;4.53;3.15;;;;;21.70;96111.00;;;;8323304;28;20210;-80
2022/07/01 01:38:09;;;;;;;3.85;3.17;;;;;21.70;96108.00;;;;8322558;28;20285;-77
2022/07/01 01:42:12;;;;;;;7.00;3.10;;;;;21.60;96113.00;;;;8316531;28;20284;-79
2022/07/01 01:46:15;;;;;;;5.30;3.08;;;;;21.60;96119.00;;;;8320873;28;20651;-74
2022/07/01 01:50:19;;;;;;;5.00;3.03;;;;;21.60;96109.00;;;;8319745;28;20228;-77
2022/07/01 01:54:24;;;;;;;3.50;3.00;;;;;21.60;96110.00;;;;8321873;28;20201;-75
2022/07/01 01:58:27;;;;;;;3.95;2.70;;;;;21.60;96115.00;;;;8322849;28;20197;-74
2022/07/01 02:02:31;;;;;;;5.15;3.42;;;;;21.50;96122.00;;;;8320800;28;20309;-77
2022/07/01 02:06:34;;;;;;;4.53;3.60;;;;;21.50;96124.00;;;;8308355;28;20296;-75
2022/07/01 02:10:39;;;;;;;15.43;3.35;;;;;21.40;96122.00;;;;8322189;28;20578;-75
2022/07/01 02:14:42;;;;;;;4.53;3.08;;;;;21.40;96124.00;;;;8319258;28;20205;-75
2022/07/01 02:18:46;;;;;;;3.45;3.10;;;;;21.40;96121.00;;;;8321782;28;22537;-75
2022/07/01 02:22:51;;;;;;;6.05;3.33;;;;;21.30;96132.00;;;;8321424;28;20250;-76
2022/07/01 02:26:55;;;;;;;3.90;3.38;;;;;21.30;96134.00;;;;8319716;28;20328;-75
2022/07/01 02:30:59;;;;;;;4.20;3.63;;;;;21.30;96124.00;;;;8321191;28;20935;-75
2022/07/01 02:35:02;;;;;;;3.50;3.20;;;;;21.20;96120.00;;;;8320061;28;20292;-72
2022/07/01 02:39:05;;;;;;;3.70;3.40;;;;;21.10;96130.00;;;;8318138;28;20882;-76
2022/07/01 02:43:10;;;;;;;6.53;3.35;;;;;21.00;96153.00;;;;8320369;28;20193;-76
2022/07/01 02:47:13;;;;;;;3.80;3.60;;;;;21.00;96174.00;;;;8317834;28;20228;-74
2022/07/01 02:51:16;;;;;;;3.60;3.30;;;;;20.90;96168.00;;;;8320294;28;20193;-75
2022/07/01 02:55:19;;;;;;;5.00;3.50;;;;;20.90;96173.00;;;;8319461;28;20202;-72
2022/07/01 02:59:24;;;;;;;7.00;3.55;;;;;20.80;96180.00;;;;8319257;28;20197;-72
2022/07/01 03:03:27;;;;;;;3.22;3.00;;;;;20.80;96205.00;;;;8346626;22;20516;-73
2022/07/01 03:07:31;;;;;;;3.25;2.85;;;;;20.80;96191.00;;;;8313581;28;20296;-75
2022/07/01 03:11:34;;;;;;;6.22;3.28;;;;;20.70;96198.00;;;;8316415;28;20693;-74
2022/07/01 03:15:38;;;;;;;4.57;3.03;;;;;20.70;96199.00;;;;8320642;28;20911;-73
2022/07/01 03:19:42;;;;;;;5.45;2.95;;;;;20.70;96203.00;;;;8331062;28;20582;-76
2022/07/01 03:23:45;;;;;;;2.67;2.50;;;;;20.70;96201.00;;;;8312135;28;20216;-76
2022/07/01 03:27:48;;;;;;;4.07;2.88;;;;;20.70;96197.00;;;;8316517;28;20190;-77
2022/07/01 03:31:53;;;;;;;3.88;2.42;;;;;20.70;96198.00;;;;8323630;28;20204;-75
2022/07/01 03:35:56;;;;;;;3.55;2.50;;;;;20.70;96203.00;;;;8304045;28;20229;-75
2022/07/01 03:39:59;;;;;;;2.97;2.65;;;;;20.70;96207.00;;;;8314928;28;20204;-75
2022/07/01 03:44:05;;;;;;;2.75;2.33;;;;;20.70;96214.00;;;;8311771;28;20281;-78
2022/07/01 03:48:12;;;;;;;4.50;2.30;;;;;20.60;96219.00;;;;8313143;28;20324;-73
2022/07/01 03:52:15;;;;;;;2.33;2.13;;;;;20.60;96213.00;;;;8309448;28;20201;-73
2022/07/01 03:56:18;;;;;;;2.20;2.10;;;;;20.60;96240.00;;;;8311745;28;20280;-73
2022/07/01 04:00:23;;;;;;;2.60;2.40;;;;;20.60;96259.00;;;;8313292;28;20194;-80
2022/07/01 04:04:28;;;;;;;2.60;2.40;;;;;20.60;96263.00;;;;8321728;28;20241;-77
2022/07/01 04:08:32;;;;;;;2.97;2.40;;;;;20.70;96277.00;;;;8314980;28;20194;-73
2022/07/01 04:12:35;;;;;;;2.55;2.40;;;;;20.70;96290.00;;;;8313516;28;20209;-74
2022/07/01 04:16:38;;;;;;;5.78;2.50;;;;;20.80;96300.00;;;;8314490;28;20825;-73
2022/07/01 04:22:32;;;;;;;2.40;2.20;;;;;20.80;96294.00;;;;8313840;28;20196;-72
2022/07/01 04:25:11;;;;;;;4.43;2.30;;;;;20.80;96293.00;;;;8319019;28;20224;-73
2022/07/01 04:29:14;;;;;;;2.72;2.13;;;;;20.80;96290.00;;;;8321288;28;20220;-75
2022/07/01 04:33:18;;;;;;;2.58;2.00;;;;;20.40;96287.00;;;;8320431;28;20236;-71
2022/07/01 04:37:24;;;;;;;3.15;2.30;;;;;20.00;96274.00;;;;8318655;28;20205;-79
2022/07/01 04:45:48;;;;;;;3.63;2.20;;;;;19.80;96284.00;;;;8319727;28;20313;-79
2022/07/01 04:49:51;;;;;;;3.40;2.55;;;;;19.90;96286.00;;;;8315888;28;20233;-75
2022/07/01 04:53:56;;;;;;;2.40;2.30;;;;;19.90;96288.00;;;;8316287;28;20197;-84
2022/07/01 04:57:59;;;;;;;2.45;2.22;;;;;19.90;96299.00;;;;8313008;28;20205;-75
2022/07/01 05:02:02;;;;;;;3.33;2.50;;;;;20.00;96301.00;;;;8312997;28;20233;-74
2022/07/01 05:06:06;;;;;;;2.80;2.60;;;;;20.10;96300.00;;;;8316457;28;20959;-74
2022/07/01 05:10:10;;;;;;;5.20;2.72;;;;;20.20;96288.00;;;;8316838;28;20958;-74
2022/07/01 05:14:14;;;;;;;3.38;2.40;;;;;20.40;96294.00;;;;8319485;28;20198;-72
2022/07/01 05:22:37;;;;;;;2.33;2.22;;;;;20.80;96293.00;;;;8315333;28;20702;-72
2022/07/01 05:26:42;;;;;;;2.50;2.30;;;;;21.00;96294.00;;;;8320518;28;20229;-73
2022/07/01 05:30:45;;;;;;;2.50;2.33;;;;;21.10;96311.00;;;;8320032;28;20197;-74
2022/07/01 05:34:49;;;;;;;2.30;2.20;;;;;21.10;96319.00;;;;8315259;28;20232;-74
2022/07/01 05:38:52;;;;;;;2.92;2.60;;;;;21.10;96322.00;;;;8314869;28;20237;-72
2022/07/01 05:42:56;;;;;;;4.20;2.60;;;;;21.20;96338.00;;;;8320224;28;20590;-77
2022/07/01 05:47:00;;;;;;;3.47;2.15;;;;;21.30;96343.00;;;;8316173;28;20312;-79
2022/07/01 05:51:03;;;;;;;2.60;2.40;;;;;21.30;96350.00;;;;8319347;28;20193;-74
2022/07/01 05:55:07;;;;;;;2.80;2.53;;;;;21.10;96371.00;;;;8320833;28;20278;-76
2022/07/01 05:59:12;;;;;;;2.95;2.40;;;;;21.00;96348.00;;;;8320594;28;20198;-76
2022/07/01 06:03:15;;;;;;;5.00;2.30;;;;;21.00;96346.00;;;;8314362;28;20706;-73
2022/07/01 06:07:19;;;;;;;7.47;2.50;;;;;21.00;96335.00;;;;8318366;28;20308;-78
2022/07/01 06:11:22;;;;;;;2.90;2.40;;;;;20.80;96327.00;;;;8319061;28;20208;-77
2022/07/01 06:15:27;;;;;;;2.83;2.50;;;;;20.70;96335.00;;;;8312447;28;20199;-73
2022/07/01 06:19:30;;;;;;;2.53;2.33;;;;;20.70;96342.00;;;;8313111;28;20287;-77
2022/07/01 06:23:33;;;;;;;3.65;2.63;;;;;20.90;96352.00;;;;8320067;28;20304;-74
2022/07/01 06:27:39;;;;;;;2.45;2.30;;;;;21.00;96389.00;;;;8318584;28;20247;-73
2022/07/01 06:31:44;;;;;;;3.17;2.28;;;;;20.90;96381.00;;;;8314490;28;20219;-74
2022/07/01 06:35:47;;;;;;;2.42;2.30;;;;;20.80;96374.00;;;;8317947;28;20666;-73
2022/07/01 06:39:50;;;;;;;2.67;2.47;;;;;20.70;96368.00;;;;8308288;28;20200;-73
2022/07/01 06:43:54;;;;;;;5.57;2.42;;;;;20.50;96372.00;;;;8317459;28;20336;-74
2022/07/01 06:47:59;;;;;;;3.63;2.35;;;;;20.40;96361.00;;;;8316400;28;20316;-73
2022/07/01 06:52:02;;;;;;;5.07;2.40;;;;;20.50;96380.00;;;;8318903;28;20276;-73
2022/07/01 06:56:05;;;;;;;3.10;2.40;;;;;20.50;96392.00;;;;8315415;28;20197;-72
2022/07/01 07:00:10;;;;;;;2.10;2.00;;;;;20.40;96405.00;;;;8315563;28;20536;-71
2022/07/01 07:04:15;;;;;;;3.92;2.33;;;;;20.20;96413.00;;;;8318023;28;20312;-74
2022/07/01 07:08:18;;;;;;;1.83;1.75;;;;;20.00;96414.00;;;;8315483;28;20256;-73
2022/07/01 07:12:21;;;;;;;1.52;1.42;;;;;19.60;96434.00;;;;8311447;28;20204;-73
2022/07/01 07:16:26;;;;;;;1.50;1.50;;;;;19.40;96436.00;;;;8300343;28;20639;-72
2022/07/01 07:20:31;;;;;;;1.70;1.60;;;;;19.30;96429.00;;;;8312338;28;20532;-70
2022/07/01 07:24:34;;;;;;;1.27;1.27;;;;;19.40;96423.00;;;;8313576;28;20697;-73
2022/07/01 07:28:38;;;;;;;2.00;1.20;;;;;19.50;96428.00;;;;8317529;28;20291;-72
2022/07/01 07:32:46;;;;;;;2.13;1.20;;;;;19.50;96436.00;;;;8318486;28;20206;-74
2022/07/01 07:36:50;;;;;;;1.75;1.10;;;;;19.50;96444.00;;;;8316625;28;20383;-73
2022/07/01 07:40:53;;;;;;;1.25;1.25;;;;;19.30;96447.00;;;;8317654;28;20216;-73
2022/07/01 07:44:57;;;;;;;1.55;1.45;;;;;19.20;96462.00;;;;8320635;28;20200;-78
2022/07/01 07:49:00;;;;;;;4.65;1.60;;;;;19.10;96464.00;;;;8317916;28;20225;-74
2022/07/01 07:53:04;;;;;;;3.85;1.40;;;;;19.10;96466.00;;;;8322433;28;20229;-74
2022/07/01 07:57:08;;;;;;;2.70;1.40;;;;;19.10;96470.00;;;;8315848;28;20280;-74
2022/07/01 08:01:11;;;;;;;1.40;1.40;;;;;19.30;96486.00;;;;8323550;28;20243;-75
2022/07/01 08:05:15;;;;;;;1.60;1.50;;;;;19.20;96474.00;;;;8315129;28;20285;-72
2022/07/01 08:09:19;;;;;;;1.88;1.73;;;;;19.20;96467.00;;;;8317125;28;20336;-74
2022/07/01 08:13:23;;;;;;;1.60;1.55;;;;;19.20;96463.00;;;;8316598;28;20919;-72
2022/07/01 08:17:26;;;;;;;1.60;1.50;;;;;19.40;96474.00;;;;8313248;28;20201;-72
2022/07/01 08:21:29;;;;;;;1.25;1.25;;;;;19.90;96479.00;;;;8319787;28;20206;-71
2022/07/01 08:25:34;;;;;;;1.70;1.35;;;;;20.30;96485.00;;;;8318854;28;20209;-70
2022/07/01 08:29:37;;;;;;;1.38;1.38;;;;;20.90;96483.00;;;;8314844;28;20193;-71
2022/07/01 08:33:41;;;;;;;1.65;1.40;;;;;21.20;96493.00;;;;8320962;28;20189;-69
2022/07/01 08:37:44;;;;;;;1.60;1.50;;;;;21.20;96487.00;;;;8311823;28;20684;-68
2022/07/01 08:41:49;;;;;;;1.30;1.30;;;;;21.80;96486.00;;;;8311501;28;20194;-70
2022/07/01 08:45:52;;;;;;;1.40;1.40;;;;;22.40;96494.00;;;;8319370;28;20198;-69
2022/07/01 08:49:56;;;;;;;1.50;1.50;;;;;22.30;96501.00;;;;8319901;28;20551;-67
2022/07/01 08:53:59;;;;;;;1.50;1.50;;;;;22.30;96507.00;;;;8318651;28;20206;-70
2022/07/01 08:58:04;;;;;;;1.70;1.60;;;;;22.10;96511.00;;;;8311960;28;20209;-71
2022/07/01 09:02:07;;;;;;;1.80;1.70;;;;;22.20;96527.00;;;;8316888;28;20700;-75
2022/07/01 09:06:16;;;;;;;1.70;1.55;;;;;22.10;96531.00;;;;8308509;28;20605;-69
2022/07/01 09:10:19;;;;;;;2.08;1.75;;;;;21.90;96544.00;;;;8320147;28;20202;-72
2022/07/01 09:14:25;;;;;;;2.38;2.10;;;;;21.80;96544.00;;;;8312669;28;20202;-70
2022/07/01 09:18:29;;;;;;;2.00;1.90;;;;;21.70;96544.00;;;;8313452;28;20995;-69
2022/07/01 09:22:35;;;;;;;1.52;1.50;;;;;21.60;96549.00;;;;8313078;28;20573;-69
2022/07/01 09:26:40;;;;;;;1.83;1.73;;;;;21.40;96550.00;;;;8318425;28;20235;-72
2022/07/01 09:30:46;;;;;;;1.92;1.80;;;;;21.20;96554.00;;;;8320576;28;20206;-69
2022/07/01 09:34:50;;;;;;;2.03;1.70;;;;;20.90;96561.00;;;;8319867;28;20280;-74
2022/07/01 09:38:54;;;;;;;2.25;1.90;;;;;20.60;96556.00;;;;8317508;28;20264;-69
2022/07/01 09:43:19;;;;;;;1.75;1.60;;;;;20.40;96556.00;;;;8319571;28;20547;-73
2022/07/01 09:47:25;;;;;;;1.52;1.50;;;;;20.40;96551.00;;;;8321336;28;20316;-69
2022/07/01 09:51:29;;;;;;;2.45;2.33;;;;;20.40;96548.00;;;;8318253;28;20280;-70
2022/07/01 09:55:34;;;;;;;2.30;2.20;;;;;20.10;96564.00;;;;8318055;28;20197;-68
2022/07/01 09:59:38;;;;;;;2.80;2.42;;;;;19.90;96552.00;;;;8315636;28;20689;-68
2022/07/01 10:03:43;;;;;;;3.20;2.90;;;;;19.70;96572.00;;;;8310348;28;20229;-70
2022/07/01 10:07:59;;;;;;;3.00;2.50;;;;;19.60;96582.00;;;;8304522;28;20251;-68
2022/07/01 10:12:30;;;;;;;3.42;3.22;;;;;19.60;96577.00;;;;8302036;28;20197;-68
2022/07/01 10:16:36;;;;;;;3.33;3.13;;;;;19.60;96562.00;;;;8305062;28;20208;-69
2022/07/01 10:20:41;;;;;;;3.50;3.30;;;;;19.60;96557.00;;;;8308073;28;20198;-69
2022/07/01 10:24:44;;;;;;;4.32;3.47;;;;;19.90;96557.00;;;;8298483;28;20201;-68
2022/07/01 10:28:47;;;;;;;2.85;2.75;;;;;20.40;96554.00;;;;8301038;28;20255;-68
2022/07/01 10:32:52;;;;;;;3.15;2.90;;;;;21.20;96555.00;;;;8313637;28;20225;-69
2022/07/01 10:37:13;;;;;;;2.15;2.08;;;;;21.70;96564.00;;;;8309991;28;20208;-69
2022/07/01 10:41:24;;;;;;;2.50;2.40;;;;;22.00;96559.00;;;;8308799;28;20204;-69
2022/07/01 10:45:27;;;;;;;2.42;2.22;;;;;22.20;96566.00;;;;8306137;28;20278;-69
2022/07/01 10:49:54;;;;;;;2.58;2.00;;;;;22.30;96573.00;;;;8309373;28;20613;-69
2022/07/01 10:53:59;;;;;;;1.92;1.77;;;;;22.10;96577.00;;;;8311466;28;20284;-69
2022/07/01 10:58:02;;;;;;;1.55;1.52;;;;;22.00;96588.00;;;;8304804;28;20287;-69
2022/07/01 11:02:11;;;;;;;1.80;1.70;;;;;21.60;96602.00;;;;8309621;28;20316;-68
2022/07/01 11:06:14;;;;;;;2.75;1.45;;;;;21.70;96612.00;;;;8305437;28;20193;-69
2022/07/01 11:10:20;;;;;;;1.60;1.50;;;;;21.60;96612.00;;;;8314913;28;20828;-69
2022/07/01 11:14:23;;;;;;;1.67;1.58;;;;;21.70;96606.00;;;;8306713;28;20280;-68
2022/07/01 11:18:26;;;;;;;1.35;1.35;;;;;21.60;96603.00;;;;8301810;28;20653;-69
2022/07/01 11:22:33;;;;;;;2.00;1.27;;;;;21.80;96607.00;;;;8307162;28;20661;-69
2022/07/01 11:26:38;;;;;;;1.48;1.35;;;;;21.90;96604.00;;;;8312436;28;20627;-69
2022/07/01 11:30:41;;;;;;;1.20;1.20;;;;;21.80;96607.00;;;;8317015;28;20276;-69
2022/07/01 11:34:44;;;;;;;1.35;1.33;;;;;21.70;96597.00;;;;8314998;28;20232;-70
2022/07/01 11:43:21;;;;;;;2.05;1.10;;;;;21.80;96600.00;;;;8306028;28;20332;-68
2022/07/01 11:47:26;;;;;;;1.00;1.00;;;;;21.70;96608.00;;;;8309070;28;20225;-70
2022/07/01 11:51:30;;;;;;;1.83;1.40;;;;;21.60;96621.00;;;;8311165;28;20202;-69
2022/07/01 11:55:33;;;;;;;1.35;1.30;;;;;21.40;96630.00;;;;8317587;28;20609;-69
2022/07/01 11:59:41;;;;;;;1.20;1.20;;;;;21.10;96629.00;;;;8313303;28;20703;-69
2022/07/01 12:03:45;;;;;;;1.10;1.10;;;;;21.00;96623.00;;;;8321563;28;20303;-69
2022/07/01 12:07:49;;;;;;;1.00;1.00;;;;;21.00;96628.00;;;;8314550;28;20222;-69
2022/07/01 12:11:53;;;;;;;1.00;1.00;;;;;20.80;96621.00;;;;8321329;28;20558;-69
2022/07/01 12:16:08;;;;;;;0.90;0.90;;;;;20.80;96621.00;;;;8333756;28;20229;-69
2022/07/01 12:20:11;;;;;;;2.17;1.10;;;;;20.70;96618.00;;;;8332414;28;20201;-69
2022/07/01 12:24:18;;;;;;;1.27;1.27;;;;;20.60;96613.00;;;;8323204;28;20206;-69
2022/07/01 12:28:32;;;;;;;2.53;1.50;;;;;20.20;96617.00;;;;8327340;28;20227;-72
2022/07/01 12:32:38;;;;;;;1.30;1.30;;;;;19.40;96607.00;;;;8316122;28;20208;-73
2022/07/01 12:36:49;;;;;;;1.30;1.30;;;;;19.00;96603.00;;;;8312517;28;20233;-72
2022/07/01 12:40:52;;;;;;;1.60;1.50;;;;;18.70;96626.00;;;;8316146;28;20194;-74
2022/07/01 12:45:08;;;;;;;3.30;1.60;;;;;18.50;96643.00;;;;8311983;28;21341;-74
2022/07/01 12:49:22;;;;;;;1.50;1.50;;;;;18.50;96634.00;;;;8311390;28;20226;-72
2022/07/01 12:53:26;;;;;;;1.60;1.60;;;;;18.40;96624.00;;;;8322440;28;20198;-73
2022/07/01 12:57:31;;;;;;;1.45;1.45;;;;;18.40;96667.00;;;;8314328;28;20913;-76
2022/07/01 13:01:40;;;;;;;1.70;1.70;;;;;18.40;96694.00;;;;8314714;28;20272;-73
2022/07/01 13:05:45;;;;;;;2.08;1.90;;;;;18.40;96668.00;;;;8316436;28;20288;-67
2022/07/01 13:09:48;;;;;;;4.60;2.03;;;;;18.20;96674.00;;;;8322142;28;20316;-74
2022/07/01 13:13:51;;;;;;;2.03;1.92;;;;;17.80;96691.00;;;;8320630;28;20339;-75
2022/07/01 13:17:55;;;;;;;2.65;1.95;;;;;17.40;96701.00;;;;8322288;28;20198;-76
2022/07/01 13:21:59;;;;;;;2.97;2.08;;;;;17.10;96731.00;;;;8319473;28;20201;-74
2022/07/01 13:26:02;;;;;;;3.00;2.10;;;;;16.90;96750.00;;;;8321718;28;20212;-72
2022/07/01 13:30:08;;;;;;;3.08;2.38;;;;;16.90;96744.00;;;;8321126;28;20885;-75
2022/07/01 13:34:11;;;;;;;2.78;2.20;;;;;16.90;96744.00;;;;8321033;28;20213;-73
2022/07/01 13:38:16;;;;;;;2.08;1.98;;;;;16.80;96754.00;;;;8311644;28;20655;-70
2022/07/01 13:42:19;;;;;;;2.58;2.38;;;;;17.00;96760.00;;;;8312380;28;20288;-72
2022/07/01 13:46:23;;;;;;;2.22;2.10;;;;;16.90;96774.00;;;;8312997;28;20271;-76
2022/07/01 13:50:26;;;;;;;3.42;2.30;;;;;16.80;96775.00;;;;8317742;28;20301;-73
2022/07/01 13:54:31;;;;;;;2.40;2.30;;;;;16.80;96784.00;;;;8319142;28;20198;-76
2022/07/01 13:58:37;;;;;;;1.80;1.80;;;;;16.70;96782.00;;;;8316865;28;20667;-72
2022/07/01 14:02:40;;;;;;;2.00;1.90;;;;;16.60;96774.00;;;;8314980;28;20854;-74
2022/07/01 14:06:44;;;;;;;1.88;1.70;;;;;16.30;96769.00;;;;8318802;28;20205;-76
2022/07/01 14:10:48;;;;;;;3.15;1.90;;;;;16.10;96758.00;;;;8315499;28;20221;-76
2022/07/01 14:14:53;;;;;;;2.00;1.90;;;;;16.00;96735.00;;;;8316565;28;20264;-73
2022/07/01 14:18:57;;;;;;;2.35;2.17;;;;;15.90;96723.00;;;;8303887;28;20201;-77
2022/07/01 14:23:00;;;;;;;1.80;1.80;;;;;15.80;96698.00;;;;8308672;28;20203;-76
2022/07/01 14:27:05;;;;;;;3.70;2.20;;;;;15.80;96675.00;;;;8316637;28;20288;-77
2022/07/01 14:31:08;;;;;;;4.25;2.45;;;;;15.80;96671.00;;;;8317186;28;20835;-67
2022/07/01 14:35:12;;;;;;;3.05;2.58;;;;;15.80;96694.00;;;;8318257;28;20208;-68
2022/07/01 14:39:15;;;;;;;3.03;2.55;;;;;16.00;96720.00;;;;8314926;28;20654;-69
2022/07/01 14:43:20;;;;;;;2.47;2.20;;;;;16.00;96718.00;;;;8314978;28;20858;-73
2022/07/01 14:47:23;;;;;;;2.75;2.20;;;;;16.20;96745.00;;;;8316312;28;20194;-72
2022/07/01 14:51:27;;;;;;;3.75;2.25;;;;;16.20;96748.00;;;;8308824;28;20221;-71
2022/07/01 14:55:31;;;;;;;2.45;2.35;;;;;16.30;96778.00;;;;8318661;28;20224;-71
2022/07/01 14:59:35;;;;;;;2.30;2.10;;;;;16.30;96803.00;;;;8319015;28;20229;-70
2022/07/01 15:03:39;;;;;;;2.42;2.30;;;;;16.30;96796.00;;;;8312824;28;20331;-72
2022/07/01 15:07:42;;;;;;;2.40;2.25;;;;;16.40;96799.00;;;;8317096;28;20193;-73
2022/07/01 15:11:45;;;;;;;2.20;2.10;;;;;16.30;96763.00;;;;8312854;28;20240;-73
2022/07/01 15:15:57;;;;;;;2.10;2.00;;;;;16.30;96779.00;;;;8312273;28;20197;-71
2022/07/01 15:20:00;;;;;;;2.88;2.00;;;;;16.30;96820.00;;;;8315325;28;20208;-70
2022/07/01 15:24:04;;;;;;;2.95;1.90;;;;;16.20;96813.00;;;;8316328;28;20247;-70
2022/07/01 15:28:07;;;;;;;1.90;1.80;;;;;16.20;96801.00;;;;8316253;28;20201;-70
2022/07/01 15:32:12;;;;;;;1.67;1.67;;;;;16.20;96804.00;;;;8317255;28;20193;-71
2022/07/01 15:36:16;;;;;;;2.42;1.90;;;;;16.30;96841.00;;;;8315346;28;20208;-71
2022/07/01 15:40:19;;;;;;;2.40;2.22;;;;;16.60;96852.00;;;;8315522;28;20205;-72
2022/07/01 15:44:23;;;;;;;1.83;1.63;;;;;17.00;96866.00;;;;8290740;28;20594;-69
2022/07/01 15:48:28;;;;;;;2.85;1.90;;;;;17.40;96859.00;;;;8315210;28;20308;-71
2022/07/01 15:52:31;;;;;;;4.93;1.70;;;;;17.60;96861.00;;;;8311418;28;20202;-72
2022/07/01 15:56:35;;;;;;;1.73;1.65;;;;;17.80;96846.00;;;;8316642;28;20309;-72
2022/07/01 16:00:41;;;;;;;2.25;1.60;;;;;17.90;96837.00;;;;8313492;28;20935;-72
2022/07/01 16:04:51;;;;;;;3.00;1.80;;;;;17.90;96834.00;;;;8309400;28;20241;-72
2022/07/01 16:09:00;;;;;;;1.98;1.88;;;;;18.00;96819.00;;;;8318068;28;20325;-72
2022/07/01 16:13:06;;;;;;;1.90;1.80;;;;;18.40;96815.00;;;;8319868;28;20202;-72
2022/07/01 16:17:10;;;;;;;4.05;1.88;;;;;18.40;96791.00;;;;8309988;28;20289;-72
2022/07/01 16:21:15;;;;;;;3.58;2.03;;;;;18.60;96803.00;;;;8319309;28;20272;-72
2022/07/01 16:25:19;;;;;;;1.80;1.70;;;;;18.70;96805.00;;;;8318654;28;20286;-73
2022/07/01 16:29:24;;;;;;;2.10;1.90;;;;;18.80;96793.00;;;;8318495;28;20821;-73
2022/07/01 16:33:28;;;;;;;1.70;1.70;;;;;19.50;96829.00;;;;8311274;28;20201;-72
2022/07/01 16:37:37;;;;;;;1.83;1.77;;;;;19.90;96824.00;;;;8307754;28;20200;-73
2022/07/01 16:41:48;;;;;;;1.60;1.60;;;;;20.50;96824.00;;;;8315018;28;20712;-74
2022/07/01 16:45:53;;;;;;;1.50;1.40;;;;;20.80;96825.00;;;;8314481;28;20249;-72
2022/07/01 16:49:58;;;;;;;1.60;1.50;;;;;20.70;96829.00;;;;8320182;28;20682;-73
2022/07/01 16:54:03;;;;;;;1.88;1.50;;;;;20.80;96822.00;;;;8315084;28;20225;-74
2022/07/01 16:58:07;;;;;;;1.60;1.60;;;;;20.70;96838.00;;;;8321158;28;20198;-74
2022/07/01 17:02:13;;;;;;;1.52;1.50;;;;;21.00;96848.00;;;;8319212;28;20316;-73
2022/07/01 17:06:17;;;;;;;2.03;1.60;;;;;21.30;96844.00;;;;8320598;28;20271;-74
2022/07/01 17:10:23;;;;;;;1.50;1.40;;;;;21.70;96861.00;;;;8317597;28;20227;-76
2022/07/01 17:14:26;;;;;;;1.48;1.30;;;;;22.00;96858.00;;;;8316657;28;20685;-77
2022/07/01 17:18:30;;;;;;;2.95;1.40;;;;;21.60;96876.00;;;;8315715;28;20634;-75
2022/07/01 17:22:44;;;;;;;3.72;1.52;;;;;21.40;96875.00;;;;8316418;28;20206;-76
2022/07/01 17:27:00;;;;;;;2.28;1.70;;;;;21.30;96868.00;;;;8315130;28;20208;-74
2022/07/01 17:31:20;;;;;;;3.78;1.77;;;;;21.20;96878.00;;;;8315129;28;20228;-73
2022/07/01 17:35:34;;;;;;;2.53;1.80;;;;;20.60;96873.00;;;;8314033;28;20201;-74
2022/07/01 17:39:40;;;;;;;2.00;1.90;;;;;20.60;96879.00;;;;8318172;28;20368;-76
2022/07/01 17:44:01;;;;;;;2.50;1.60;;;;;21.70;96881.00;;;;8307222;28;20205;-76
2022/07/01 17:48:07;;;;;;;6.55;1.45;;;;;22.50;96892.00;;;;8308749;28;20205;-76
2022/07/01 17:52:10;;;;;;;3.70;1.90;;;;;21.90;96898.00;;;;8309583;28;20708;-75
2022/07/01 17:56:14;;;;;;;1.80;1.70;;;;;21.60;96897.00;;;;8311048;28;20211;-73
2022/07/01 18:00:19;;;;;;;1.70;1.60;;;;;21.50;96894.00;;;;8310496;28;20293;-77
2022/07/01 18:04:26;;;;;;;2.00;1.77;;;;;21.00;96900.00;;;;8309901;28;20237;-77
2022/07/01 18:08:32;;;;;;;3.28;1.70;;;;;20.50;96902.00;;;;8312526;28;20625;-76
2022/07/01 18:12:43;;;;;;;2.75;1.70;;;;;20.10;96914.00;;;;8312221;28;20224;-79
2022/07/01 18:17:03;;;;;;;2.20;1.90;;;;;19.80;96912.00;;;;8305717;28;20208;-75
2022/07/01 18:21:12;;;;;;;2.03;1.88;;;;;19.40;96907.00;;;;8307113;28;20913;-74
2022/07/01 18:25:23;;;;;;;2.45;2.00;;;;;19.00;96911.00;;;;8314234;28;20204;-76
2022/07/01 18:29:28;;;;;;;2.15;1.90;;;;;18.80;96921.00;;;;8313218;28;20276;-79
2022/07/01 18:33:38;;;;;;;2.13;1.92;;;;;18.50;96924.00;;;;8315411;28;20215;-76
2022/07/01 18:37:49;;;;;;;3.55;2.00;;;;;18.30;96933.00;;;;8311727;28;20292;-77
2022/07/01 18:41:57;;;;;;;2.15;2.05;;;;;18.00;96925.00;;;;8309264;28;20500;-75
2022/07/01 18:46:01;;;;;;;5.65;2.42;;;;;17.80;96929.00;;;;8308564;28;20632;-75
2022/07/01 18:50:07;;;;;;;8.75;2.75;;;;;17.40;96938.00;;;;8309971;28;20217;-76
2022/07/01 18:54:10;;;;;;;8.43;2.25;;;;;17.20;96948.00;;;;8314004;28;20208;-75
2022/07/01 18:58:17;;;;;;;12.90;3.13;;;;;17.00;96940.00;;;;8306883;28;20223;-77
2022/07/01 19:02:20;;;;;;;9.90;2.42;;;;;16.80;96952.00;;;;8313479;28;20321;-76
2022/07/01 19:06:25;;;;;;;9.55;2.58;;;;;16.50;96954.00;;;;8326526;28;20251;-74
2022/07/01 19:10:28;;;;;;;4.45;2.40;;;;;16.40;96945.00;;;;8326995;28;20233;-78
2022/07/01 19:14:32;;;;;;;3.75;2.28;;;;;16.20;96956.00;;;;8324959;28;20201;-73
2022/07/01 19:18:35;;;;;;;9.95;2.55;;;;;16.00;96954.00;;;;8324911;28;20623;-75
2022/07/01 19:22:41;;;;;;;8.00;2.60;;;;;15.90;96954.00;;;;8320492;28;20189;-73
2022/07/01 19:26:44;;;;;;;3.95;2.60;;;;;15.80;96963.00;;;;8313856;28;20281;-76
2022/07/01 19:30:48;;;;;;;12.30;2.70;;;;;15.60;96961.00;;;;8322680;28;20236;-76
2022/07/01 19:34:51;;;;;;;10.40;3.13;;;;;15.20;96969.00;;;;8327340;28;20196;-76
2022/07/01 19:38:56;;;;;;;7.90;2.90;;;;;15.10;96965.00;;;;8320241;28;20203;-74
2022/07/01 19:43:08;;;;;;;11.80;3.42;;;;;14.90;96970.00;;;;8321421;28;20638;-73
2022/07/01 19:47:19;;;;;;;7.03;2.70;;;;;14.80;96979.00;;;;8328123;28;20721;-75
2022/07/01 19:51:23;;;;;;;6.70;2.75;;;;;14.70;96978.00;;;;8328533;28;20262;-73
2022/07/01 19:55:28;;;;;;;8.85;2.90;;;;;14.50;96985.00;;;;8322279;28;20223;-72
2022/07/01 19:59:31;;;;;;;5.57;3.05;;;;;14.30;97002.00;;;;8316936;28;20219;-74
2022/07/01 20:03:34;;;;;;;7.03;3.25;;;;;14.20;96989.00;;;;8314704;28;20312;-73
2022/07/01 20:07:37;;;;;;;7.30;3.20;;;;;14.10;96990.00;;;;8314762;28;20201;-73
2022/07/01 20:11:44;;;;;;;7.13;2.75;;;;;14.10;97003.00;;;;8317501;28;20225;-76
2022/07/01 20:15:47;;;;;;;7.03;3.40;;;;;14.10;97008.00;;;;8309589;28;20205;-73
2022/07/01 20:19:51;;;;;;;14.10;3.50;;;;;14.00;97018.00;;;;8309670;28;20248;-76
2022/07/01 20:23:54;;;;;;;6.20;3.28;;;;;13.80;97023.00;;;;8305429;28;20207;-75
2022/07/01 20:27:59;;;;;;;17.40;3.40;;;;;13.60;97017.00;;;;8321718;28;20204;-74
2022/07/01 20:32:03;;;;;;;6.38;3.72;;;;;13.60;97023.00;;;;8316518;28;20229;-74
2022/07/01 20:36:06;;;;;;;13.73;3.60;;;;;13.60;97019.00;;;;8310087;28;20189;-72